createdAt,value
2017-02-23T00:00:32.399Z,21.37
2017-02-23T00:01:46.083Z,21.37
2017-02-23T00:02:59.770Z,21.46
2017-02-23T00:04:13.514Z,21.47
2017-02-23T00:05:27.189Z,21.5
2017-02-23T00:06:40.923Z,21.46
2017-02-23T00:07:54.655Z,21.49
2017-02-23T00:09:08.311Z,21.59
2017-02-23T00:10:21.391Z,21.53
2017-02-23T00:11:35.138Z,21.62
2017-02-23T00:12:48.846Z,21.54
2017-02-23T00:14:02.543Z,21.58
2017-02-23T00:15:15.058Z,21.59
2017-02-23T00:16:28.141Z,21.56
2017-02-23T00:17:41.816Z,21.59
2017-02-23T00:18:55.519Z,21.61
2017-02-23T00:20:08.617Z,21.61
2017-02-23T00:21:21.711Z,21.58
2017-02-23T00:22:35.399Z,21.59
2017-02-23T00:23:49.121Z,21.61
2017-02-23T00:25:02.889Z,21.69
2017-02-23T00:26:16.571Z,21.67
2017-02-23T00:27:30.274Z,21.8
2017-02-23T00:28:43.980Z,21.74
2017-02-23T00:29:57.674Z,21.8
2017-02-23T00:31:10.765Z,21.74
2017-02-23T00:32:24.467Z,21.77
2017-02-23T00:33:38.209Z,21.86
2017-02-23T00:34:51.927Z,21.98
2017-02-23T00:36:05.629Z,22.05
2017-02-23T00:37:18.742Z,21.99
2017-02-23T00:38:32.437Z,21.96
2017-02-23T00:39:46.126Z,22.1
2017-02-23T00:40:59.831Z,22.07
2017-02-23T00:42:13.544Z,22.03
2017-02-23T00:43:27.256Z,22.1
2017-02-23T00:44:40.972Z,22.03
2017-02-23T00:45:54.696Z,22.06
2017-02-23T00:47:08.399Z,22
2017-02-23T00:48:21.549Z,22
2017-02-23T00:49:35.303Z,21.99
2017-02-23T00:50:48.420Z,21.99
2017-02-23T00:52:02.158Z,21.98
2017-02-23T00:53:15.239Z,22.02
2017-02-23T00:54:28.961Z,22.03
2017-02-23T00:55:42.673Z,21.99
2017-02-23T00:56:55.793Z,21.96
2017-02-23T00:58:09.500Z,22.02
2017-02-23T00:59:22.001Z,21.99
2017-02-23T01:00:35.686Z,22
2017-02-23T01:01:49.376Z,22.03
2017-02-23T01:03:03.058Z,22.03
2017-02-23T01:04:16.727Z,22
2017-02-23T01:05:30.436Z,22.07
2017-02-23T01:06:44.152Z,22.1
2017-02-23T01:07:57.281Z,22.12
2017-02-23T01:09:11.183Z,22.06
2017-02-23T01:10:23.709Z,22.09
2017-02-23T01:11:37.394Z,22.12
2017-02-23T01:12:51.122Z,22.17
2017-02-23T01:14:04.903Z,22.17
2017-02-23T01:15:17.397Z,22.05
2017-02-23T01:16:31.131Z,22.1
2017-02-23T01:17:44.872Z,21.92
2017-02-23T01:18:57.981Z,21.88
2017-02-23T01:20:11.100Z,21.82
2017-02-23T01:21:24.785Z,21.77
2017-02-23T01:22:38.444Z,21.91
2017-02-23T01:23:52.212Z,22.02
2017-02-23T01:25:05.309Z,22.1
2017-02-23T01:26:19.027Z,22.21
2017-02-23T01:27:32.717Z,22.25
2017-02-23T01:28:46.485Z,22.28
2017-02-23T01:30:00.157Z,22.37
2017-02-23T01:31:13.292Z,22.31
2017-02-23T01:32:26.979Z,22.28
2017-02-23T01:33:40.688Z,22.27
2017-02-23T01:34:54.408Z,22.33
2017-02-23T01:36:08.104Z,22.39
2017-02-23T01:37:21.823Z,22.31
2017-02-23T01:38:35.533Z,22.31
2017-02-23T01:39:49.228Z,22.31
2017-02-23T01:41:02.925Z,22.27
2017-02-23T01:42:16.627Z,22.24
2017-02-23T01:43:30.320Z,22.28
2017-02-23T01:44:44.019Z,22.33
2017-02-23T01:45:57.134Z,22.33
2017-02-23T01:47:10.879Z,22.35
2017-02-23T01:48:23.982Z,22.27
2017-02-23T01:49:37.673Z,22.28
2017-02-23T01:50:51.381Z,22.33
2017-02-23T01:52:05.090Z,22.2
2017-02-23T01:53:18.776Z,22.14
2017-02-23T01:54:32.517Z,22.05
2017-02-23T01:55:46.242Z,21.91
2017-02-23T01:56:59.963Z,21.77
2017-02-23T01:58:13.650Z,21.67
2017-02-23T01:59:26.751Z,21.61
2017-02-23T02:00:40.449Z,21.59
2017-02-23T02:01:54.145Z,21.62
2017-02-23T02:03:07.855Z,21.68
2017-02-23T02:04:19.775Z,21.72
2017-02-23T02:05:33.530Z,21.8
2017-02-23T02:06:47.232Z,21.84
2017-02-23T02:08:00.928Z,21.9
2017-02-23T02:09:14.607Z,21.84
2017-02-23T02:10:28.302Z,21.9
2017-02-23T02:11:42.044Z,21.88
2017-02-23T02:12:55.132Z,21.84
2017-02-23T02:14:08.840Z,21.83
2017-02-23T02:15:21.959Z,21.8
2017-02-23T02:16:35.700Z,21.86
2017-02-23T02:17:49.399Z,21.82
2017-02-23T02:19:03.146Z,21.86
2017-02-23T02:20:16.848Z,21.74
2017-02-23T02:21:30.534Z,21.74
2017-02-23T02:22:44.249Z,21.67
2017-02-23T02:23:57.945Z,21.62
2017-02-23T02:25:11.649Z,21.65
2017-02-23T02:26:25.389Z,21.61
2017-02-23T02:27:39.073Z,21.65
2017-02-23T02:28:52.159Z,21.65
2017-02-23T02:30:05.260Z,21.65
2017-02-23T02:31:18.351Z,21.58
2017-02-23T02:32:32.046Z,21.68
2017-02-23T02:33:45.819Z,21.77
2017-02-23T02:34:59.552Z,21.72
2017-02-23T02:36:12.701Z,21.72
2017-02-23T02:37:26.433Z,21.74
2017-02-23T02:38:40.137Z,21.75
2017-02-23T02:39:53.897Z,21.65
2017-02-23T02:41:07.654Z,21.72
2017-02-23T02:42:21.347Z,21.72
2017-02-23T02:43:35.019Z,21.9
2017-02-23T02:44:48.728Z,21.86
2017-02-23T02:46:02.439Z,21.96
2017-02-23T02:47:16.133Z,22.02
2017-02-23T02:48:29.813Z,21.99
2017-02-23T02:49:43.507Z,22.03
2017-02-23T02:50:57.214Z,22.07
2017-02-23T02:52:10.273Z,22.14
2017-02-23T02:53:23.439Z,22.05
2017-02-23T02:54:37.167Z,21.94
2017-02-23T02:55:50.886Z,21.99
2017-02-23T02:57:04.604Z,21.98
2017-02-23T02:58:18.289Z,22
2017-02-23T02:59:31.975Z,21.94
2017-02-23T03:00:45.648Z,22
2017-02-23T03:01:59.351Z,21.98
2017-02-23T03:03:12.461Z,21.98
2017-02-23T03:04:26.231Z,21.96
2017-02-23T03:05:39.907Z,21.91
2017-02-23T03:06:52.994Z,21.98
2017-02-23T03:08:06.701Z,21.84
2017-02-23T03:09:19.820Z,21.86
2017-02-23T03:10:33.503Z,21.94
2017-02-23T03:11:47.192Z,21.91
2017-02-23T03:13:00.883Z,21.91
2017-02-23T03:14:14.627Z,21.94
2017-02-23T03:15:28.298Z,21.94
2017-02-23T03:16:42.057Z,21.99
2017-02-23T03:17:55.150Z,21.92
2017-02-23T03:19:08.851Z,21.94
2017-02-23T03:20:21.993Z,21.92
2017-02-23T03:21:35.652Z,21.91
2017-02-23T03:22:48.895Z,21.84
2017-02-23T03:24:02.009Z,21.79
2017-02-23T03:25:15.127Z,21.75
2017-02-23T03:26:28.271Z,21.75
2017-02-23T03:27:41.968Z,21.79
2017-02-23T03:28:55.044Z,21.75
2017-02-23T03:30:08.735Z,21.91
2017-02-23T03:31:22.439Z,22.03
2017-02-23T03:32:36.133Z,22.03
2017-02-23T03:33:49.862Z,22.06
2017-02-23T03:35:03.586Z,22.14
2017-02-23T03:36:17.306Z,22.05
2017-02-23T03:37:30.997Z,22.09
2017-02-23T03:38:44.711Z,22.12
2017-02-23T03:39:58.396Z,22.07
2017-02-23T03:41:12.090Z,21.98
2017-02-23T03:42:25.846Z,21.8
2017-02-23T03:43:39.634Z,21.79
2017-02-23T03:44:52.729Z,21.67
2017-02-23T03:46:06.485Z,21.61
2017-02-23T03:47:19.553Z,21.61
2017-02-23T03:48:33.239Z,21.58
2017-02-23T03:49:46.921Z,21.53
2017-02-23T03:51:00.604Z,21.46
2017-02-23T03:52:14.321Z,21.46
2017-02-23T03:53:28.000Z,21.49
2017-02-23T03:54:41.694Z,21.53
2017-02-23T03:55:55.389Z,21.47
2017-02-23T03:57:09.136Z,21.49
2017-02-23T03:58:21.641Z,21.44
2017-02-23T03:59:35.368Z,21.37
2017-02-23T04:00:49.067Z,21.38
2017-02-23T04:02:02.726Z,21.44
2017-02-23T04:03:15.246Z,21.37
2017-02-23T04:04:28.918Z,21.47
2017-02-23T04:05:41.984Z,21.47
2017-02-23T04:06:55.729Z,21.53
2017-02-23T04:08:09.427Z,21.5
2017-02-23T04:09:22.570Z,21.53
2017-02-23T04:10:36.247Z,21.53
2017-02-23T04:11:49.958Z,21.61
2017-02-23T04:13:03.118Z,21.69
2017-02-23T04:14:16.873Z,21.62
2017-02-23T04:15:30.603Z,21.72
2017-02-23T04:16:44.312Z,21.62
2017-02-23T04:17:58.014Z,21.62
2017-02-23T04:19:11.712Z,21.58
2017-02-23T04:20:25.437Z,21.56
2017-02-23T04:21:39.126Z,21.62
2017-02-23T04:22:52.808Z,21.53
2017-02-23T04:24:06.491Z,21.56
2017-02-23T04:25:19.008Z,21.62
2017-02-23T04:26:32.116Z,21.61
2017-02-23T04:27:45.795Z,21.54
2017-02-23T04:28:59.481Z,21.52
2017-02-23T04:30:13.255Z,21.53
2017-02-23T04:31:27.071Z,21.53
2017-02-23T04:32:40.776Z,21.5
2017-02-23T04:33:54.461Z,21.49
2017-02-23T04:35:08.138Z,21.47
2017-02-23T04:36:21.832Z,21.53
2017-02-23T04:37:35.536Z,21.49
2017-02-23T04:38:49.274Z,21.49
2017-02-23T04:40:02.983Z,21.47
2017-02-23T04:41:16.669Z,21.52
2017-02-23T04:42:30.349Z,21.43
2017-02-23T04:43:44.045Z,21.56
2017-02-23T04:44:57.723Z,21.47
2017-02-23T04:46:10.828Z,21.56
2017-02-23T04:47:23.380Z,21.46
2017-02-23T04:48:37.066Z,21.52
2017-02-23T04:49:50.767Z,21.62
2017-02-23T04:51:04.440Z,21.54
2017-02-23T04:52:17.537Z,21.59
2017-02-23T04:53:30.674Z,21.59
2017-02-23T04:54:44.362Z,21.58
2017-02-23T04:55:58.052Z,21.59
2017-02-23T04:57:11.744Z,21.58
2017-02-23T04:58:25.491Z,21.58
2017-02-23T04:59:39.197Z,21.58
2017-02-23T05:00:52.298Z,21.56
2017-02-23T05:02:05.987Z,21.53
2017-02-23T05:03:19.076Z,21.52
2017-02-23T05:04:32.759Z,21.53
2017-02-23T05:05:45.826Z,21.5
2017-02-23T05:06:59.546Z,21.49
2017-02-23T05:08:12.635Z,21.5
2017-02-23T05:09:25.734Z,21.4
2017-02-23T05:10:39.417Z,21.38
2017-02-23T05:11:53.108Z,21.27
2017-02-23T05:13:06.846Z,21.24
2017-02-23T05:14:20.526Z,21.21
2017-02-23T05:15:34.217Z,21.17
2017-02-23T05:16:47.915Z,21.03
2017-02-23T05:18:01.588Z,21.06
2017-02-23T05:19:14.654Z,21.09
2017-02-23T05:20:28.349Z,20.99
2017-02-23T05:21:42.051Z,20.98
2017-02-23T05:22:55.164Z,20.98
2017-02-23T05:24:08.860Z,20.77
2017-02-23T05:25:22.544Z,20.84
2017-02-23T05:26:36.278Z,20.8
2017-02-23T05:27:49.373Z,20.77
2017-02-23T05:29:03.022Z,20.8
2017-02-23T05:30:16.735Z,20.84
2017-02-23T05:31:30.491Z,20.87
2017-02-23T05:32:44.161Z,20.85
2017-02-23T05:33:57.861Z,20.88
2017-02-23T05:35:11.542Z,20.82
2017-02-23T05:36:25.303Z,20.73
2017-02-23T05:37:38.983Z,20.73
2017-02-23T05:38:52.049Z,20.77
2017-02-23T05:40:05.180Z,20.64
2017-02-23T05:41:18.877Z,20.61
2017-02-23T05:42:32.004Z,20.64
2017-02-23T05:43:45.668Z,20.7
2017-02-23T05:44:59.417Z,20.67
2017-02-23T05:46:13.101Z,20.64
2017-02-23T05:47:26.222Z,20.67
2017-02-23T05:48:39.923Z,20.69
2017-02-23T05:49:53.008Z,20.64
2017-02-23T05:51:06.701Z,20.66
2017-02-23T05:52:20.397Z,20.72
2017-02-23T05:53:34.206Z,20.69
2017-02-23T05:54:47.871Z,20.72
2017-02-23T05:56:01.601Z,20.7
2017-02-23T05:57:14.664Z,20.73
2017-02-23T05:58:28.337Z,20.74
2017-02-23T05:59:42.007Z,20.74
2017-02-23T06:00:55.698Z,20.74
2017-02-23T06:02:09.457Z,20.87
2017-02-23T06:03:23.181Z,20.88
2017-02-23T06:04:36.931Z,20.92
2017-02-23T06:05:50.622Z,21.07
2017-02-23T06:07:04.321Z,21.12
2017-02-23T06:08:18.015Z,21.04
2017-02-23T06:09:31.708Z,21.09
2017-02-23T06:10:45.374Z,20.99
2017-02-23T06:11:58.460Z,21.03
2017-02-23T06:13:12.163Z,21.03
2017-02-23T06:14:25.843Z,20.99
2017-02-23T06:15:39.539Z,20.99
2017-02-23T06:16:53.257Z,21.07
2017-02-23T06:18:06.931Z,21.06
2017-02-23T06:19:19.450Z,21.03
2017-02-23T06:20:33.174Z,21.06
2017-02-23T06:21:46.872Z,20.92
2017-02-23T06:22:59.984Z,20.95
2017-02-23T06:24:13.666Z,20.97
2017-02-23T06:25:27.368Z,20.94
2017-02-23T06:26:41.054Z,20.89
2017-02-23T06:27:54.826Z,20.94
2017-02-23T06:29:08.506Z,20.94
2017-02-23T06:30:21.614Z,20.91
2017-02-23T06:31:35.314Z,20.89
2017-02-23T06:32:48.998Z,20.88
2017-02-23T06:34:02.696Z,20.8
2017-02-23T06:35:16.411Z,20.88
2017-02-23T06:36:30.122Z,20.85
2017-02-23T06:37:43.837Z,20.8
2017-02-23T06:38:56.933Z,20.77
2017-02-23T06:40:10.643Z,20.74
2017-02-23T06:41:24.346Z,20.8
2017-02-23T06:42:38.016Z,20.8
2017-02-23T06:43:51.679Z,20.73
2017-02-23T06:45:05.374Z,20.72
2017-02-23T06:46:18.466Z,20.77
2017-02-23T06:47:32.156Z,20.72
2017-02-23T06:48:45.885Z,20.8
2017-02-23T06:49:59.518Z,20.72
2017-02-23T06:51:13.217Z,20.61
2017-02-23T06:52:26.910Z,20.62
2017-02-23T06:53:40.589Z,20.64
2017-02-23T06:54:54.273Z,20.61
2017-02-23T06:56:07.966Z,20.55
2017-02-23T06:57:21.073Z,20.59
2017-02-23T06:58:34.783Z,20.59
2017-02-23T06:59:47.905Z,20.58
2017-02-23T07:01:01.618Z,20.52
2017-02-23T07:02:14.733Z,20.51
2017-02-23T07:03:28.425Z,20.48
2017-02-23T07:04:42.168Z,20.42
2017-02-23T07:05:55.283Z,20.43
2017-02-23T07:07:08.976Z,20.47
2017-02-23T07:08:22.084Z,20.41
2017-02-23T07:09:35.798Z,20.42
2017-02-23T07:10:49.445Z,20.48
2017-02-23T07:12:03.156Z,20.5
2017-02-23T07:13:15.680Z,20.51
2017-02-23T07:14:29.395Z,20.55
2017-02-23T07:15:43.104Z,20.54
2017-02-23T07:16:55.620Z,20.51
2017-02-23T07:18:09.327Z,20.57
2017-02-23T07:19:23.008Z,20.57
2017-02-23T07:20:36.690Z,20.57
2017-02-23T07:21:50.391Z,20.42
2017-02-23T07:23:04.066Z,20.47
2017-02-23T07:24:17.790Z,20.58
2017-02-23T07:25:31.486Z,20.54
2017-02-23T07:26:45.224Z,20.55
2017-02-23T07:27:58.942Z,20.51
2017-02-23T07:29:12.616Z,20.54
2017-02-23T07:30:26.340Z,20.39
2017-02-23T07:31:38.862Z,20.39
2017-02-23T07:32:51.962Z,20.33
2017-02-23T07:34:05.658Z,20.31
2017-02-23T07:35:18.735Z,20.38
2017-02-23T07:36:31.847Z,20.28
2017-02-23T07:37:45.572Z,20.28
2017-02-23T07:38:59.283Z,20.29
2017-02-23T07:40:12.971Z,20.18
2017-02-23T07:41:26.064Z,20.29
2017-02-23T07:42:39.195Z,20.32
2017-02-23T07:43:52.934Z,20.29
2017-02-23T07:45:06.063Z,20.31
2017-02-23T07:46:19.146Z,20.26
2017-02-23T07:47:32.878Z,20.21
2017-02-23T07:48:46.619Z,20.24
2017-02-23T07:50:00.287Z,20.31
2017-02-23T07:51:13.410Z,20.28
2017-02-23T07:52:27.118Z,20.32
2017-02-23T07:53:40.794Z,20.31
2017-02-23T07:54:53.888Z,20.2
2017-02-23T07:56:07.631Z,20.18
2017-02-23T07:57:20.728Z,20.06
2017-02-23T07:58:34.438Z,20.06
2017-02-23T07:59:48.131Z,20.11
2017-02-23T08:01:01.783Z,20.21
2017-02-23T08:02:15.517Z,20.14
2017-02-23T08:03:29.220Z,20.11
2017-02-23T08:04:42.314Z,20.14
2017-02-23T08:05:55.402Z,20.1
2017-02-23T08:07:08.499Z,20.05
2017-02-23T08:08:22.159Z,20.05
2017-02-23T08:09:35.258Z,19.99
2017-02-23T08:10:48.967Z,20.1
2017-02-23T08:12:02.663Z,20.06
2017-02-23T08:13:15.756Z,20.11
2017-02-23T08:14:29.475Z,20.08
2017-02-23T08:15:43.146Z,20.03
2017-02-23T08:16:56.841Z,20.11
2017-02-23T08:18:10.579Z,20.1
2017-02-23T08:19:24.278Z,20.23
2017-02-23T08:20:37.982Z,20.2
2017-02-23T08:21:51.266Z,20.31
2017-02-23T08:23:04.374Z,20.26
2017-02-23T08:24:18.083Z,20.28
2017-02-23T08:25:31.792Z,20.32
2017-02-23T08:26:44.917Z,20.31
2017-02-23T08:27:58.643Z,20.28
2017-02-23T08:29:11.794Z,20.42
2017-02-23T08:30:25.481Z,20.41
2017-02-23T08:31:39.225Z,20.42
2017-02-23T08:32:52.941Z,20.35
2017-02-23T08:34:06.667Z,20.39
2017-02-23T08:35:19.752Z,20.33
2017-02-23T08:36:33.485Z,20.39
2017-02-23T08:37:47.237Z,20.35
2017-02-23T08:39:00.960Z,20.33
2017-02-23T08:40:14.058Z,20.43
2017-02-23T08:41:27.211Z,20.36
2017-02-23T08:42:40.908Z,20.39
2017-02-23T08:43:53.979Z,20.42
2017-02-23T08:45:07.682Z,20.43
2017-02-23T08:46:21.392Z,20.43
2017-02-23T08:47:33.286Z,20.42
2017-02-23T08:48:46.960Z,20.5
2017-02-23T08:50:00.666Z,20.58
2017-02-23T08:51:13.196Z,20.47
2017-02-23T08:52:26.915Z,20.48
2017-02-23T08:53:40.020Z,20.66
2017-02-23T08:54:53.705Z,20.72
2017-02-23T08:56:07.421Z,20.73
2017-02-23T08:57:19.910Z,20.79
2017-02-23T08:58:33.655Z,20.85
2017-02-23T08:59:47.357Z,20.88
2017-02-23T09:01:01.049Z,20.97
2017-02-23T09:02:14.750Z,20.97
2017-02-23T09:03:28.479Z,21.1
2017-02-23T09:04:42.171Z,21.1
2017-02-23T09:05:55.858Z,21.12
2017-02-23T09:07:09.526Z,21.17
2017-02-23T09:08:23.225Z,21.37
2017-02-23T09:09:36.920Z,21.37
2017-02-23T09:10:50.595Z,21.43
2017-02-23T09:12:04.304Z,21.47
2017-02-23T09:13:17.976Z,21.56
2017-02-23T09:14:31.748Z,21.64
2017-02-23T09:15:45.469Z,21.77
2017-02-23T09:16:58.567Z,21.83
2017-02-23T09:18:11.637Z,21.98
2017-02-23T09:19:25.364Z,22.14
2017-02-23T09:20:38.520Z,22.24
2017-02-23T09:21:51.660Z,22.2
2017-02-23T09:23:04.774Z,22.35
2017-02-23T09:24:17.866Z,22.42
2017-02-23T09:25:31.567Z,22.57
2017-02-23T09:26:44.635Z,22.68
2017-02-23T09:27:58.570Z,22.65
2017-02-23T09:29:12.252Z,22.88
2017-02-23T09:30:25.924Z,23
2017-02-23T09:31:39.648Z,23.13
2017-02-23T09:32:53.407Z,23.27
2017-02-23T09:34:07.088Z,23.39
2017-02-23T09:35:20.797Z,23.65
2017-02-23T09:36:33.931Z,23.75
2017-02-23T09:37:47.649Z,23.84
2017-02-23T09:39:01.341Z,24.02
2017-02-23T09:40:15.065Z,24.12
2017-02-23T09:41:28.753Z,24.2
2017-02-23T09:42:42.464Z,24.32
2017-02-23T09:43:56.162Z,24.39
2017-02-23T09:45:09.846Z,24.52
2017-02-23T09:46:23.559Z,24.57
2017-02-23T09:47:37.255Z,24.69
2017-02-23T09:48:50.916Z,24.93
2017-02-23T09:50:04.612Z,25.08
2017-02-23T09:51:17.719Z,25.33
2017-02-23T09:52:31.458Z,25.4
2017-02-23T09:53:45.170Z,25.57
2017-02-23T09:54:58.846Z,25.97
2017-02-23T09:56:12.575Z,25.76
2017-02-23T09:57:26.304Z,26.07
2017-02-23T09:58:40.044Z,26.07
2017-02-23T09:59:53.754Z,26.05
2017-02-23T10:01:07.520Z,26.2
2017-02-23T10:02:21.225Z,26.02
2017-02-23T10:03:34.937Z,25.97
2017-02-23T10:04:48.021Z,25.9
2017-02-23T10:06:01.725Z,25.82
2017-02-23T10:07:15.424Z,25.7
2017-02-23T10:08:29.168Z,25.95
2017-02-23T10:09:42.895Z,26.06
2017-02-23T10:10:56.624Z,26.05
2017-02-23T10:12:10.420Z,26.06
2017-02-23T10:13:23.601Z,25.97
2017-02-23T10:14:37.348Z,25.99
2017-02-23T10:15:50.421Z,26.05
2017-02-23T10:17:04.123Z,25.97
2017-02-23T10:18:17.801Z,25.97
2017-02-23T10:19:30.910Z,25.85
2017-02-23T10:20:44.028Z,26.01
2017-02-23T10:21:57.760Z,26.28
2017-02-23T10:23:10.871Z,26.4
2017-02-23T10:24:24.567Z,26.28
2017-02-23T10:25:38.303Z,26.21
2017-02-23T10:26:52.024Z,26.43
2017-02-23T10:28:05.136Z,26.62
2017-02-23T10:29:18.333Z,26.95
2017-02-23T10:30:31.416Z,27.1
2017-02-23T10:31:44.517Z,27.28
2017-02-23T10:32:58.245Z,27.62
2017-02-23T10:34:12.039Z,27.77
2017-02-23T10:35:25.729Z,28.07
2017-02-23T10:36:39.418Z,28.33
2017-02-23T10:37:53.127Z,28.76
2017-02-23T10:39:06.836Z,29.02
2017-02-23T10:40:20.530Z,29.15
2017-02-23T10:41:34.217Z,29.26
2017-02-23T10:42:47.926Z,29.53
2017-02-23T10:44:01.643Z,29.83
2017-02-23T10:45:15.356Z,30
2017-02-23T10:46:28.467Z,30.22
2017-02-23T10:47:41.597Z,30.24
2017-02-23T10:48:55.344Z,30.31
2017-02-23T10:50:09.051Z,30.49
2017-02-23T10:51:22.173Z,30.39
2017-02-23T10:52:35.880Z,30.47
2017-02-23T10:53:49.548Z,30.43
2017-02-23T10:55:03.359Z,30.49
2017-02-23T10:56:15.296Z,30.43
2017-02-23T10:57:28.420Z,30.45
2017-02-23T10:58:40.929Z,30.58
2017-02-23T10:59:54.635Z,30.47
2017-02-23T11:01:08.339Z,30.43
2017-02-23T11:02:20.836Z,30.39
2017-02-23T11:03:34.519Z,30.11
2017-02-23T11:04:48.257Z,29.76
2017-02-23T11:06:01.980Z,29.04
2017-02-23T11:07:13.905Z,28.27
2017-02-23T11:08:27.034Z,28.3
2017-02-23T11:09:40.791Z,28.37
2017-02-23T11:10:54.504Z,28.14
2017-02-23T11:12:08.232Z,27.88
2017-02-23T11:13:21.361Z,28.07
2017-02-23T11:14:35.116Z,27.9
2017-02-23T11:15:48.818Z,27.78
2017-02-23T11:17:02.511Z,27.47
2017-02-23T11:18:16.249Z,27.36
2017-02-23T11:19:30.004Z,27.37
2017-02-23T11:20:43.705Z,27.24
2017-02-23T11:21:57.401Z,27.24
2017-02-23T11:23:11.129Z,27.41
2017-02-23T11:24:24.247Z,27.19
2017-02-23T11:25:37.973Z,27.1
2017-02-23T11:26:51.731Z,27.22
2017-02-23T11:28:05.442Z,27.07
2017-02-23T11:29:18.000Z,27.03
2017-02-23T11:30:31.735Z,27.34
2017-02-23T11:31:44.816Z,27.55
2017-02-23T11:32:57.922Z,27.6
2017-02-23T11:34:11.624Z,27.72
2017-02-23T11:35:25.340Z,27.32
2017-02-23T11:36:39.050Z,27.31
2017-02-23T11:37:52.735Z,27.22
2017-02-23T11:39:06.462Z,27.18
2017-02-23T11:40:18.999Z,27.19
2017-02-23T11:41:32.691Z,27.25
2017-02-23T11:42:46.418Z,27.07
2017-02-23T11:44:00.119Z,26.67
2017-02-23T11:45:13.828Z,26.72
2017-02-23T11:46:27.558Z,26.62
2017-02-23T11:47:41.278Z,26.65
2017-02-23T11:48:55.003Z,27.07
2017-02-23T11:50:08.123Z,27.18
2017-02-23T11:51:20.633Z,26.65
2017-02-23T11:52:33.736Z,26.57
2017-02-23T11:53:47.483Z,26.63
2017-02-23T11:55:01.210Z,26.73
2017-02-23T11:56:14.324Z,26.57
2017-02-23T11:57:28.033Z,26.52
2017-02-23T11:58:41.776Z,26.57
2017-02-23T11:59:55.515Z,26.58
2017-02-23T12:01:09.210Z,26.88
2017-02-23T12:02:23.025Z,27.13
2017-02-23T12:03:36.725Z,27.36
2017-02-23T12:04:49.810Z,27.65
2017-02-23T12:06:03.530Z,27.75
2017-02-23T12:07:17.245Z,27.72
2017-02-23T12:08:30.324Z,27.6
2017-02-23T12:09:44.018Z,27.55
2017-02-23T12:10:57.742Z,27.43
2017-02-23T12:12:10.862Z,27.14
2017-02-23T12:13:24.572Z,26.91
2017-02-23T12:14:38.282Z,26.7
2017-02-23T12:15:51.423Z,26.82
2017-02-23T12:17:05.221Z,26.91
2017-02-23T12:18:17.773Z,26.92
2017-02-23T12:19:31.503Z,27.1
2017-02-23T12:20:45.211Z,27.19
2017-02-23T12:21:57.691Z,27.06
2017-02-23T12:23:11.405Z,27.02
2017-02-23T12:24:24.492Z,27
2017-02-23T12:25:38.205Z,27.22
2017-02-23T12:26:51.925Z,27.46
2017-02-23T12:28:05.639Z,27.9
2017-02-23T12:29:19.380Z,28.15
2017-02-23T12:30:33.106Z,28.54
2017-02-23T12:31:46.859Z,28.55
2017-02-23T12:33:00.570Z,28.54
2017-02-23T12:34:14.357Z,28.03
2017-02-23T12:35:28.102Z,27.78
2017-02-23T12:36:41.879Z,27.79
2017-02-23T12:37:54.996Z,27.55
2017-02-23T12:39:08.700Z,27.93
2017-02-23T12:40:21.808Z,27.99
2017-02-23T12:41:35.509Z,28.27
2017-02-23T12:42:49.288Z,28.03
2017-02-23T12:44:03.051Z,27.97
2017-02-23T12:45:16.990Z,27.82
2017-02-23T12:46:30.834Z,27.92
2017-02-23T12:47:44.523Z,27.92
2017-02-23T12:48:57.680Z,27.92
2017-02-23T12:50:29.060Z,28.03
2017-02-23T12:51:43.018Z,27.9
2017-02-23T12:52:56.760Z,28.11
2017-02-23T12:54:10.492Z,27.99
2017-02-23T12:55:24.222Z,27.9
2017-02-23T12:56:37.992Z,27.87
2017-02-23T12:57:51.693Z,28.17
2017-02-23T12:59:05.429Z,28.44
2017-02-23T13:00:17.933Z,28.76
2017-02-23T13:01:31.664Z,28.95
2017-02-23T13:02:45.376Z,29.11
2017-02-23T13:03:59.079Z,29.33
2017-02-23T13:05:12.185Z,29.48
2017-02-23T13:06:25.887Z,29.39
2017-02-23T13:07:39.617Z,29.31
2017-02-23T13:08:53.305Z,29.27
2017-02-23T13:10:07.036Z,29.3
2017-02-23T13:11:20.742Z,29.19
2017-02-23T13:12:34.510Z,29.33
2017-02-23T13:13:47.623Z,29
2017-02-23T13:15:01.336Z,28.85
2017-02-23T13:16:14.518Z,28.92
2017-02-23T13:17:28.221Z,29.18
2017-02-23T13:18:41.345Z,29.24
2017-02-23T13:19:55.199Z,29.16
2017-02-23T13:21:08.901Z,28.9
2017-02-23T13:22:22.037Z,28.93
2017-02-23T13:23:35.740Z,28.98
2017-02-23T13:24:48.911Z,29.36
2017-02-23T13:26:02.662Z,29.83
2017-02-23T13:27:14.600Z,29.82
2017-02-23T13:28:28.367Z,29.36
2017-02-23T13:29:42.069Z,29.3
2017-02-23T13:30:55.805Z,29.7
2017-02-23T13:32:09.490Z,29.52
2017-02-23T13:33:23.212Z,29.14
2017-02-23T13:34:36.337Z,29.31
2017-02-23T13:35:49.773Z,29.7
2017-02-23T13:37:05.396Z,29.92
2017-02-23T13:38:19.180Z,29.8
2017-02-23T13:39:33.611Z,29.64
2017-02-23T13:40:48.018Z,29.79
2017-02-23T13:42:01.792Z,29.8
2017-02-23T13:43:14.904Z,29.87
2017-02-23T13:44:29.327Z,29.74
2017-02-23T13:45:43.753Z,29.46
2017-02-23T13:47:54.753Z,29.19
2017-02-23T13:49:09.167Z,29.15
2017-02-23T13:50:22.890Z,29.53
2017-02-23T13:51:36.006Z,29.68
2017-02-23T13:52:50.533Z,29.73
2017-02-23T13:54:05.422Z,29.97
2017-02-23T13:55:19.746Z,29.87
2017-02-23T13:56:32.816Z,29.9
2017-02-23T13:57:47.193Z,29.97
2017-02-23T13:59:01.596Z,29.86
2017-02-23T14:00:15.335Z,29.45
2017-02-23T14:01:41.183Z,29.33
2017-02-23T14:02:55.544Z,29.64
2017-02-23T14:04:09.901Z,29.58
2017-02-23T14:05:24.290Z,29.76
2017-02-23T14:06:38.055Z,30.32
2017-02-23T14:07:52.429Z,30.19
2017-02-23T14:09:06.923Z,30.13
2017-02-23T14:10:21.283Z,29.95
2017-02-23T14:11:35.709Z,30.19
2017-02-23T14:12:50.144Z,30.43
2017-02-23T14:14:04.563Z,31.01
2017-02-23T14:15:18.399Z,30.58
2017-02-23T14:16:33.034Z,30.51
2017-02-23T14:17:47.454Z,30.37
2017-02-23T14:19:01.865Z,29.97
2017-02-23T14:20:16.281Z,29.78
2017-02-23T14:21:30.707Z,30.22
2017-02-23T14:22:45.132Z,30.46
2017-02-23T14:23:59.506Z,30.08
2017-02-23T14:25:13.930Z,30.31
2017-02-23T14:26:28.375Z,30.61
2017-02-23T14:27:42.775Z,30.23
2017-02-23T14:28:57.216Z,29.95
2017-02-23T14:30:11.634Z,30.2
2017-02-23T14:31:26.092Z,30.46
2017-02-23T14:32:40.617Z,30.43
2017-02-23T14:33:54.692Z,30.49
2017-02-23T14:35:09.354Z,30.15
2017-02-23T14:36:22.690Z,29.92
2017-02-23T14:37:37.370Z,29.9
2017-02-23T14:38:51.864Z,30.43
2017-02-23T14:40:06.490Z,30.83
2017-02-23T14:41:20.970Z,30.86
2017-02-23T14:42:35.718Z,31.1
2017-02-23T14:43:50.550Z,31.28
2017-02-23T14:45:05.143Z,31.57
2017-02-23T14:46:17.972Z,32.26
2017-02-23T14:47:32.934Z,32.07
2017-02-23T14:48:47.540Z,31.95
2017-02-23T14:50:01.538Z,32.4
2017-02-23T14:51:16.202Z,32.48
2017-02-23T14:52:30.956Z,32.32
2017-02-23T14:53:44.918Z,31.91
2017-02-23T14:54:59.525Z,31.19
2017-02-23T14:56:13.475Z,30.47
2017-02-23T14:57:27.361Z,29.73
2017-02-23T14:58:41.888Z,29.7
2017-02-23T14:59:56.532Z,30
2017-02-23T15:01:11.128Z,30.31
2017-02-23T15:02:24.919Z,30.35
2017-02-23T15:03:39.474Z,30.64
2017-02-23T15:04:54.086Z,31.25
2017-02-23T15:06:08.736Z,31.58
2017-02-23T15:07:22.518Z,31.43
2017-02-23T15:08:40.168Z,31.01
2017-02-23T15:09:54.786Z,30.39
2017-02-23T15:11:09.340Z,30.22
2017-02-23T15:12:23.235Z,30.07
2017-02-23T15:13:37.138Z,29.76
2017-02-23T15:14:51.791Z,29.95
2017-02-23T15:16:06.385Z,30.38
2017-02-23T15:17:21.489Z,30.76
2017-02-23T15:18:34.883Z,31.1
2017-02-23T15:19:49.411Z,31.21
2017-02-23T15:21:04.081Z,31.2
2017-02-23T15:22:17.399Z,31.38
2017-02-23T15:23:31.985Z,31.32
2017-02-23T15:24:46.606Z,30.7
2017-02-23T15:26:01.146Z,30.51
2017-02-23T15:27:15.768Z,30.75
2017-02-23T15:28:30.415Z,30.82
2017-02-23T15:29:45.158Z,30.75
2017-02-23T15:30:59.845Z,30.86
2017-02-23T15:32:13.162Z,31.02
2017-02-23T15:33:27.340Z,31.31
2017-02-23T15:34:41.942Z,31.81
2017-02-23T15:35:56.555Z,32.23
2017-02-23T15:37:11.201Z,32.55
2017-02-23T15:38:25.061Z,32.29
2017-02-23T15:44:00.215Z,33.47
2017-02-23T15:45:13.990Z,33.53
2017-02-23T15:46:27.623Z,32.92
2017-02-23T15:47:41.779Z,32.38
2017-02-23T15:48:55.940Z,32.19
2017-02-23T15:50:08.780Z,32.23
2017-02-23T15:51:23.085Z,32.59
2017-02-23T15:52:37.294Z,33.09
2017-02-23T15:53:51.337Z,33.18
2017-02-23T15:55:05.272Z,33.21
2017-02-23T15:56:20.126Z,33.42
2017-02-23T15:57:34.997Z,33.65
2017-02-23T15:58:50.617Z,34.3